»·PEaware :: FDX1026 KLAX-KGCN

FDX1026 :: KLAX-KGCN

FLIGHT INFORMATION

Flight Status: Arrived
Operator:
Federal Express
More flights by this operator :: More flights under this callsign
Pilot: Paul K. (16555)
Aircraft: BOEING 727-200
(B722)
More flights by this aircraft type
Origin: KLAX Los Angeles Intl
United States
Destination: KGCN Grand Canyon Natl Park
United States
More flights between these airports :: More routes between these airports
Route: ORCKA3 MISEN PGS
File this flight plan on PilotEdge
Remarks:
Altitude:
(Current/Filed)
31,000ft
Speed:
(Current/Filed)
489kts
Departed: 09-Sep-19 05:56 PM
Arrived: 09-Sep-19 06:54 PM
Distance/Time
Traveled:
331nm/0:58
Distance/Time
To Go:
Arrived

Flight Plot

Page will automatically refresh every two minutes.

Flight plan parsing failed; only flown route is shown


Map Options




Map Legend


Flown Route
Filed Route
Departure Airport
Arrival Airport
Navaid (VOR, NDB)
Fix

Horizontal Profiles

Position Reports

Time Latitude Longitude Heading Altitude Ground
Speed
09-Sep-19 17:40 33.934060 -118.387718 173 137ft 0kts
09-Sep-19 17:41 33.934060 -118.387718 173 137ft 0kts
09-Sep-19 17:42 33.934060 -118.387718 173 137ft 0kts
09-Sep-19 17:43 33.934060 -118.387718 173 137ft 0kts
09-Sep-19 17:44 33.934060 -118.387718 173 137ft 0kts
09-Sep-19 17:45 33.934060 -118.387718 173 137ft 0kts
09-Sep-19 17:46 33.934060 -118.387718 173 137ft 0kts
09-Sep-19 17:47 33.934527 -118.387816 155 137ft 3kts
09-Sep-19 17:48 33.934710 -118.388269 81 137ft 0kts
09-Sep-19 17:49 33.934871 -118.387629 66 137ft 11kts
09-Sep-19 17:50 33.936017 -118.383726 84 137ft 16kts
09-Sep-19 17:51 33.936269 -118.382999 21 137ft 0kts
09-Sep-19 17:52 33.936386 -118.382962 7 137ft 7kts
09-Sep-19 17:53 33.937284 -118.383333 261 137ft 0kts
09-Sep-19 17:54 33.937284 -118.383333 261 137ft 0kts
09-Sep-19 17:55 33.935683 -118.398663 263 138ft 155kts
09-Sep-19 17:56 33.929758 -118.459698 251 2206ft 203kts
09-Sep-19 17:57 33.903836 -118.528988 246 4640ft 240kts
09-Sep-19 17:58 33.874956 -118.607411 248 4991ft 264kts
09-Sep-19 17:59 33.852688 -118.689768 287 4990ft 255kts
09-Sep-19 18:00 33.912695 -118.701677 49 7431ft 270kts
09-Sep-19 18:01 33.921692 -118.610051 87 9899ft 286kts
09-Sep-19 18:02 33.926780 -118.503360 86 11252ft 339kts
09-Sep-19 18:03 33.955234 -118.391256 52 13228ft 361kts
09-Sep-19 18:04 34.013541 -118.290920 54 15176ft 375kts
09-Sep-19 18:05 34.074467 -118.183019 54 16903ft 388kts
09-Sep-19 18:06 34.136883 -118.072532 53 18550ft 401kts
09-Sep-19 18:07 34.199538 -117.961269 53 20208ft 412kts
09-Sep-19 18:08 34.256083 -117.860638 53 21489ft 421kts
09-Sep-19 18:09 34.321666 -117.743493 53 22756ft 431kts
09-Sep-19 18:10 34.393711 -117.618830 51 22903ft 435kts
09-Sep-19 18:11 34.467466 -117.495099 51 23668ft 445kts
09-Sep-19 18:12 34.540992 -117.370069 51 25026ft 445kts
09-Sep-19 18:13 34.615300 -117.243777 52 25852ft 454kts
09-Sep-19 18:14 34.690629 -117.115183 52 26658ft 460kts
09-Sep-19 18:15 34.767344 -116.983586 52 27335ft 467kts
09-Sep-19 18:16 34.845145 -116.849749 52 27948ft 474kts
09-Sep-19 18:17 34.923737 -116.714050 52 28528ft 479kts
09-Sep-19 18:18 35.003273 -116.576345 52 29071ft 485kts
09-Sep-19 18:19 35.082605 -116.438076 53 29598ft 489kts
09-Sep-19 18:20 35.127663 -116.277768 77 29976ft 496kts
09-Sep-19 18:21 35.158634 -116.112000 76 30328ft 499kts
09-Sep-19 18:22 35.191624 -115.942423 76 30814ft 498kts
09-Sep-19 18:23 35.224691 -115.770195 77 30800ft 508kts
09-Sep-19 18:24 35.257394 -115.595592 77 30800ft 518kts
09-Sep-19 18:25 35.290906 -115.417189 77 30801ft 528kts
09-Sep-19 18:26 35.323178 -115.244171 77 30799ft 536kts
09-Sep-19 18:27 35.357056 -115.060393 77 30769ft 543kts
09-Sep-19 18:28 35.391141 -114.873468 77 30750ft 549kts
09-Sep-19 18:29 35.425237 -114.685057 78 30763ft 553kts
09-Sep-19 18:30 35.458993 -114.496687 78 30773ft 556kts
09-Sep-19 18:31 35.490593 -114.318942 78 30767ft 539kts
09-Sep-19 18:32 35.519062 -114.157150 79 30761ft 517kts
09-Sep-19 18:33 35.549126 -113.984554 79 29211ft 488kts
09-Sep-19 18:34 35.577467 -113.820854 79 27157ft 466kts
09-Sep-19 18:35 35.603862 -113.667242 79 25123ft 440kts
09-Sep-19 18:36 35.630838 -113.516410 76 23417ft 443kts
09-Sep-19 18:37 35.665852 -113.370647 73 21885ft 422kts
09-Sep-19 18:38 35.698245 -113.239322 74 20387ft 389kts
09-Sep-19 18:39 35.727728 -113.114911 75 18862ft 361kts
09-Sep-19 18:40 35.755635 -112.995401 75 17374ft 377kts
09-Sep-19 18:41 35.786531 -112.863518 74 15886ft 405kts
09-Sep-19 18:43 35.817904 -112.730387 75 14385ft 399kts
09-Sep-19 18:44 35.848261 -112.599811 74 12869ft 384kts
09-Sep-19 18:45 35.877035 -112.475664 74 11356ft 365kts
09-Sep-19 18:46 35.903495 -112.361123 75 10955ft 329kts
09-Sep-19 18:47 35.928380 -112.258692 76 10348ft 297kts
09-Sep-19 18:48 35.961107 -112.174246 45 9148ft 230kts
09-Sep-19 18:49 36.004519 -112.126104 39 8301ft 196kts
09-Sep-19 18:50 36.043003 -112.084441 82 8250ft 169kts
09-Sep-19 18:51 36.016071 -112.073960 235 8015ft 148kts
09-Sep-19 18:52 35.986830 -112.110730 221 7216ft 145kts
09-Sep-19 18:53 35.955378 -112.143689 220 6616ft 117kts
09-Sep-19 18:54 35.947106 -112.150987 84 6616ft 0kts
09-Sep-19 18:55 35.948272 -112.149510 41 6616ft 16kts
09-Sep-19 18:56 35.952592 -112.144901 40 6616ft 19kts
09-Sep-19 18:57 35.956842 -112.140520 48 6616ft 19kts
09-Sep-19 18:58 35.960345 -112.136778 54 6616ft 9kts
09-Sep-19 18:59 35.961011 -112.135374 39 6616ft 0kts
09-Sep-19 18:59 35.961011 -112.135374 39 6616ft 0kts
09-Sep-19 19:00 35.961011 -112.135374 39 6616ft 0kts
09-Sep-19 19:02 35.961011 -112.135374 39 6616ft 0kts

Navigation Log

Ident Type
Flight plan parsing failed, navigation log unavailable